createdAt,value
2022-12-18T00:01:37.502Z,24.05
2022-12-18T00:04:39.154Z,23.48
2022-12-18T00:07:40.823Z,23.77
2022-12-18T00:10:42.508Z,24.30
2022-12-18T00:13:44.642Z,25.15
2022-12-18T00:16:47.689Z,21.83
2022-12-18T00:19:49.323Z,24.90
2022-12-18T00:22:51.006Z,21.42
2022-12-18T00:25:52.676Z,22.80
2022-12-18T00:28:54.981Z,22.10
2022-12-18T00:31:56.615Z,21.80
2022-12-18T00:34:58.273Z,22.92
2022-12-18T00:37:59.902Z,25.60
2022-12-18T00:41:02.115Z,23.35
2022-12-18T00:44:05.217Z,23.35
2022-12-18T00:47:06.909Z,24.05
2022-12-18T00:50:10.054Z,24.83
2022-12-18T00:53:12.761Z,24.75
2022-12-18T00:56:14.431Z,22.17
2022-12-18T00:59:17.564Z,22.17
2022-12-18T01:02:19.226Z,23.25
2022-12-18T01:05:20.959Z,22.75
2022-12-18T01:08:22.545Z,21.85
2022-12-18T01:11:24.725Z,19.92
2022-12-18T01:14:26.361Z,21.23
2022-12-18T01:17:27.984Z,21.67
2022-12-18T01:20:29.608Z,21.12
2022-12-18T01:23:31.190Z,21.10
2022-12-18T01:26:32.945Z,21.25
2022-12-18T01:29:34.578Z,21.30
2022-12-18T01:32:36.193Z,21.33
2022-12-18T01:35:44.486Z,21.10
2022-12-18T01:38:46.769Z,19.40
2022-12-18T01:42:03.789Z,19.15
2022-12-18T01:45:14.504Z,19.33
2022-12-18T01:48:16.147Z,18.40
2022-12-18T01:51:18.369Z,18.77
2022-12-18T01:54:19.977Z,19.35
2022-12-18T01:57:23.143Z,18.90
2022-12-18T02:00:26.583Z,20.45
2022-12-18T02:03:28.903Z,19.27
2022-12-18T02:06:40.900Z,20.73
2022-12-18T02:10:07.327Z,19.33
2022-12-18T02:13:23.587Z,18.10
2022-12-18T02:16:37.191Z,18.30
2022-12-18T02:20:03.868Z,18.45
2022-12-18T02:23:12.603Z,18.08
2022-12-18T02:26:20.121Z,18.83
2022-12-18T02:32:48.640Z,18.35
2022-12-18T02:35:53.725Z,16.60
2022-12-18T02:38:56.950Z,17.42
2022-12-18T02:42:00.458Z,17.12
2022-12-18T02:45:02.248Z,17.35
2022-12-18T02:48:04.078Z,17.90
2022-12-18T02:51:47.133Z,17.70
2022-12-18T02:55:07.238Z,17.10
2022-12-18T02:58:33.015Z,16.50
2022-12-18T03:01:42.928Z,16.33
2022-12-18T03:04:50.982Z,15.13
2022-12-18T03:08:14.252Z,15.05
2022-12-18T03:11:16.524Z,14.32
2022-12-18T03:14:21.636Z,15.02
2022-12-18T03:17:26.470Z,15.35
2022-12-18T03:20:32.381Z,15.35
2022-12-18T03:23:41.044Z,15.25
2022-12-18T03:26:47.429Z,15.75
2022-12-18T03:30:13.266Z,15.70
2022-12-18T03:33:25.199Z,14.25
2022-12-18T03:36:27.809Z,15.93
2022-12-18T03:39:29.460Z,15.48
2022-12-18T03:42:37.408Z,15.75
2022-12-18T03:45:49.228Z,14.80
2022-12-18T03:48:58.414Z,15.02
2022-12-18T03:52:10.044Z,15.88
2022-12-18T03:55:13.344Z,15.23
2022-12-18T03:58:19.488Z,16.65
2022-12-18T04:01:26.902Z,15.23
2022-12-18T04:07:31.760Z,14.77
2022-12-18T04:10:33.441Z,14.85
2022-12-18T04:13:39.527Z,15.02
2022-12-18T04:16:41.437Z,15.35
2022-12-18T04:19:43.051Z,14.80
2022-12-18T04:22:44.818Z,15.02
2022-12-18T04:25:48.084Z,15.60
2022-12-18T04:28:49.700Z,15.65
2022-12-18T04:31:51.324Z,15.98
2022-12-18T04:34:52.939Z,15.82
2022-12-18T04:37:54.783Z,20.30
2022-12-18T04:40:56.412Z,25.62
2022-12-18T04:43:58.027Z,24.10
2022-12-18T04:46:59.672Z,26.15
2022-12-18T04:50:01.324Z,23.55
2022-12-18T04:53:03.035Z,19.33
2022-12-18T04:56:07.088Z,16.35
2022-12-18T04:59:08.696Z,15.25
2022-12-18T05:02:10.467Z,16.48
2022-12-18T05:05:12.213Z,16.10
2022-12-18T05:08:13.843Z,16.73
2022-12-18T05:11:16.787Z,16.12
2022-12-18T05:14:18.488Z,17.85
2022-12-18T05:17:20.161Z,18.10
2022-12-18T05:20:21.827Z,17.25
2022-12-18T05:23:24.982Z,20.17
2022-12-18T05:26:26.715Z,20.42
2022-12-18T05:29:28.380Z,20.65
2022-12-18T05:32:29.962Z,19.75
2022-12-18T05:35:31.591Z,20.67
2022-12-18T05:38:34.848Z,20.25
2022-12-18T05:41:36.518Z,21.33
2022-12-18T05:44:38.121Z,22.95
2022-12-18T05:47:39.772Z,26.75
2022-12-18T05:50:43.841Z,25.02
2022-12-18T05:53:45.908Z,20.83
2022-12-18T05:56:49.053Z,24.65
2022-12-18T05:59:50.841Z,22.73
2022-12-18T06:02:52.584Z,18.58
2022-12-18T06:05:55.479Z,20.42
2022-12-18T06:08:57.701Z,28.65
2022-12-18T06:11:59.366Z,19.02
2022-12-18T06:15:01.572Z,25.67
2022-12-18T06:18:03.236Z,40.38
2022-12-18T06:21:05.250Z,50.45
2022-12-18T06:24:07.168Z,63.92
2022-12-18T06:27:08.761Z,43.13
2022-12-18T06:30:11.105Z,26.08
2022-12-18T06:33:12.847Z,24.83
2022-12-18T06:36:14.635Z,27.52
2022-12-18T06:39:16.236Z,28.45
2022-12-18T06:42:17.836Z,25.02
2022-12-18T06:45:19.486Z,24.92
2022-12-18T06:48:21.263Z,24.87
2022-12-18T06:51:24.774Z,25.67
2022-12-18T06:54:26.581Z,23.92
2022-12-18T06:57:28.348Z,22.45
2022-12-18T07:00:30.035Z,21.75
2022-12-18T07:03:32.092Z,24.10
2022-12-18T07:06:33.729Z,26.42
2022-12-18T07:09:35.435Z,24.63
2022-12-18T07:12:37.158Z,25.40
2022-12-18T07:15:38.754Z,27.17
2022-12-18T07:18:40.451Z,26.12
2022-12-18T07:21:42.090Z,27.73
2022-12-18T07:24:43.693Z,28.12
2022-12-18T07:27:45.309Z,30.70
2022-12-18T07:30:47.024Z,22.62
2022-12-18T07:33:50.704Z,20.70
2022-12-18T07:36:52.363Z,19.83
2022-12-18T07:39:53.965Z,21.23
2022-12-18T07:42:55.602Z,20.88
2022-12-18T07:45:57.308Z,17.65
2022-12-18T07:48:58.986Z,16.92
2022-12-18T07:52:00.743Z,18.25
2022-12-18T07:55:04.098Z,18.20
2022-12-18T07:58:05.726Z,17.33
2022-12-18T08:01:09.705Z,18.08
2022-12-18T08:04:13.287Z,17.65
2022-12-18T08:07:14.891Z,19.02
2022-12-18T08:10:17.178Z,18.17
2022-12-18T08:13:18.795Z,16.98
2022-12-18T08:16:21.264Z,16.75
2022-12-18T08:19:22.994Z,17.20
2022-12-18T08:22:24.695Z,20.27
2022-12-18T08:25:26.370Z,22.65
2022-12-18T08:28:28.032Z,24.08
2022-12-18T08:31:31.015Z,20.20
2022-12-18T08:34:32.758Z,21.75
2022-12-18T08:37:34.735Z,18.90
2022-12-18T08:40:36.493Z,18.70
2022-12-18T08:43:57.412Z,17.95
2022-12-18T08:46:59.019Z,18.85
2022-12-18T08:50:00.652Z,17.10
2022-12-18T08:53:02.529Z,19.12
2022-12-18T08:56:04.839Z,21.15
2022-12-18T08:59:06.561Z,19.52
2022-12-18T09:02:13.210Z,20.62
2022-12-18T09:05:15.121Z,19.98
2022-12-18T09:08:16.791Z,20.23
2022-12-18T09:11:26.759Z,20.17
2022-12-18T09:14:29.315Z,20.05
2022-12-18T09:17:30.992Z,20.55
2022-12-18T09:20:32.627Z,20.60
2022-12-18T09:23:34.217Z,20.77
2022-12-18T09:26:36.129Z,20.88
2022-12-18T09:29:37.732Z,21.60
2022-12-18T09:32:39.386Z,20.00
2022-12-18T09:35:42.166Z,22.20
2022-12-18T09:38:44.024Z,23.73
2022-12-18T09:41:54.324Z,25.12
2022-12-18T09:44:56.050Z,26.37
2022-12-18T09:47:58.685Z,23.70
2022-12-18T09:51:06.888Z,20.92
2022-12-18T09:54:21.310Z,18.45
2022-12-18T09:57:25.718Z,19.65
2022-12-18T10:00:27.329Z,17.50
2022-12-18T10:03:29.048Z,17.15
2022-12-18T10:06:47.187Z,17.58
2022-12-18T10:10:19.361Z,17.50
2022-12-18T10:13:30.161Z,21.17
2022-12-18T10:16:54.349Z,20.75
2022-12-18T10:20:02.074Z,21.35
2022-12-18T10:23:27.360Z,19.65
2022-12-18T10:26:29.061Z,19.23
2022-12-18T10:29:30.804Z,21.48
2022-12-18T10:32:32.459Z,18.73
2022-12-18T10:35:35.653Z,22.67
2022-12-18T10:38:38.426Z,23.00
2022-12-18T10:41:40.263Z,16.65
2022-12-18T10:44:41.960Z,20.27
2022-12-18T10:47:45.918Z,15.73
2022-12-18T10:54:19.257Z,20.40
2022-12-18T10:57:27.089Z,19.12
2022-12-18T11:00:31.399Z,12.55
2022-12-18T11:03:37.595Z,13.13
2022-12-18T11:06:57.355Z,13.15
2022-12-18T11:10:02.296Z,13.62
2022-12-18T11:13:18.539Z,13.90
2022-12-18T11:16:21.197Z,14.07
2022-12-18T11:19:25.594Z,12.75
2022-12-18T11:22:33.232Z,14.87
2022-12-18T11:25:35.910Z,10.55
2022-12-18T11:28:43.397Z,11.20
2022-12-18T11:31:45.401Z,11.90
2022-12-18T11:34:58.919Z,10.25
2022-12-18T11:38:07.835Z,11.90
2022-12-18T11:41:48.897Z,9.27
2022-12-18T11:45:02.040Z,9.90
2022-12-18T11:48:22.616Z,9.85
2022-12-18T11:51:33.317Z,9.90
2022-12-18T11:54:34.928Z,11.40
2022-12-18T11:57:55.822Z,10.25
2022-12-18T12:00:57.347Z,10.02
2022-12-18T12:04:05.060Z,10.15
2022-12-18T12:07:34.411Z,10.55
2022-12-18T12:10:42.133Z,11.95
2022-12-18T12:13:43.897Z,12.13
2022-12-18T12:16:53.744Z,12.88
2022-12-18T12:20:14.840Z,12.52
2022-12-18T12:23:28.080Z,13.65
2022-12-18T12:26:38.733Z,14.40
2022-12-18T12:29:43.218Z,14.85
2022-12-18T12:32:44.741Z,13.75
2022-12-18T12:35:49.595Z,17.05
2022-12-18T12:38:57.103Z,15.27
2022-12-18T12:45:29.458Z,16.08
2022-12-18T12:48:51.298Z,16.37
2022-12-18T12:52:12.072Z,15.13
2022-12-18T12:55:21.398Z,16.08
2022-12-18T12:58:37.899Z,17.23
2022-12-18T13:01:54.148Z,14.95
2022-12-18T13:05:29.234Z,15.13
2022-12-18T13:08:51.844Z,15.00
2022-12-18T13:12:11.971Z,18.15
2022-12-18T13:15:22.540Z,17.45
2022-12-18T13:18:26.342Z,16.50
2022-12-18T13:21:34.127Z,15.93
2022-12-18T13:24:36.205Z,16.98
2022-12-18T13:27:44.059Z,15.77
2022-12-18T13:30:59.330Z,14.65
2022-12-18T13:34:27.427Z,15.60
2022-12-18T13:37:32.954Z,15.32
2022-12-18T13:40:40.804Z,18.17
2022-12-18T13:43:46.036Z,19.17
2022-12-18T13:46:50.805Z,15.68
2022-12-18T13:49:53.632Z,16.62
2022-12-18T13:52:55.333Z,16.02
2022-12-18T13:55:57.808Z,15.32
2022-12-18T13:59:24.851Z,15.77
2022-12-18T14:02:29.965Z,16.35
2022-12-18T14:05:41.087Z,15.80
2022-12-18T14:08:47.220Z,15.27
2022-12-18T14:11:53.272Z,15.45
2022-12-18T14:14:55.488Z,15.40
2022-12-18T14:18:03.729Z,15.93
2022-12-18T14:21:06.479Z,17.15
2022-12-18T14:24:16.707Z,16.98
2022-12-18T14:27:26.443Z,16.98
2022-12-18T14:30:32.785Z,16.67
2022-12-18T14:33:34.543Z,16.05
2022-12-18T14:36:36.164Z,15.50
2022-12-18T14:39:37.874Z,15.27
2022-12-18T14:42:39.602Z,16.42
2022-12-18T14:45:45.467Z,16.73
2022-12-18T14:48:49.189Z,16.12
2022-12-18T14:52:16.234Z,16.77
2022-12-18T14:55:19.520Z,17.95
2022-12-18T14:58:21.469Z,17.60
2022-12-18T15:01:25.415Z,18.12
2022-12-18T15:04:29.839Z,18.65
2022-12-18T15:07:50.059Z,19.58
2022-12-18T15:10:52.331Z,21.30
2022-12-18T15:13:54.619Z,20.90
2022-12-18T15:16:57.990Z,26.70
2022-12-18T15:20:03.878Z,27.52
2022-12-18T15:23:06.402Z,21.48
2022-12-18T15:26:12.857Z,22.25
2022-12-18T15:29:22.895Z,32.60
2022-12-18T15:32:27.126Z,38.55
2022-12-18T15:35:29.766Z,36.40
2022-12-18T15:38:33.191Z,33.78
2022-12-18T15:41:37.310Z,38.53
2022-12-18T15:44:40.088Z,34.22
2022-12-18T15:47:46.274Z,27.25
2022-12-18T15:50:49.784Z,26.33
2022-12-18T15:53:56.409Z,26.25
2022-12-18T15:57:17.213Z,22.70
2022-12-18T16:00:21.174Z,20.52
2022-12-18T16:03:23.799Z,22.52
2022-12-18T16:06:40.378Z,21.17
2022-12-18T16:09:52.579Z,20.00
2022-12-18T16:12:55.251Z,19.60
2022-12-18T16:15:57.966Z,18.65
2022-12-18T16:19:00.504Z,19.17
2022-12-18T16:22:06.406Z,18.95
2022-12-18T16:25:24.471Z,19.20
2022-12-18T16:31:31.939Z,21.08
2022-12-18T16:34:36.275Z,19.08
2022-12-18T16:37:38.991Z,20.10
2022-12-18T16:41:01.959Z,20.62
2022-12-18T16:44:04.667Z,18.55
2022-12-18T16:47:07.164Z,20.88
2022-12-18T16:50:12.735Z,19.92
2022-12-18T16:53:15.462Z,18.85
2022-12-18T16:56:18.224Z,18.60
2022-12-18T16:59:20.392Z,19.87
2022-12-18T17:02:25.949Z,19.23
2022-12-18T17:05:31.138Z,18.05
2022-12-18T17:08:34.915Z,18.55
2022-12-18T17:11:37.779Z,18.35
2022-12-18T17:14:42.428Z,21.15
2022-12-18T17:17:45.344Z,22.48
2022-12-18T17:20:47.650Z,27.83
2022-12-18T17:23:51.250Z,31.48
2022-12-18T17:26:54.018Z,42.58
2022-12-18T17:29:56.485Z,31.17
2022-12-18T17:32:59.150Z,51.90
2022-12-18T17:36:03.168Z,44.10
2022-12-18T17:39:06.666Z,57.90
2022-12-18T17:42:14.960Z,53.42
2022-12-18T17:45:18.426Z,41.92
2022-12-18T17:48:21.259Z,41.70
2022-12-18T17:51:24.165Z,41.63
2022-12-18T17:54:26.551Z,41.65
2022-12-18T17:57:29.182Z,41.05
2022-12-18T18:00:32.051Z,39.22
2022-12-18T18:03:38.087Z,48.08
2022-12-18T18:06:41.298Z,42.13
2022-12-18T18:09:43.931Z,80.53
2022-12-18T18:13:04.831Z,94.07
2022-12-18T18:16:07.985Z,59.20
2022-12-18T18:19:28.877Z,49.95
2022-12-18T18:22:31.192Z,45.25
2022-12-18T18:25:37.652Z,36.40
2022-12-18T18:28:40.402Z,33.38
2022-12-18T18:31:43.249Z,34.15
2022-12-18T18:34:45.535Z,49.60
2022-12-18T18:37:51.062Z,45.83
2022-12-18T18:41:01.980Z,46.65
2022-12-18T18:44:05.237Z,40.45
2022-12-18T18:47:09.656Z,34.50
2022-12-18T18:50:13.498Z,35.03
2022-12-18T18:53:15.729Z,38.80
2022-12-18T18:59:43.328Z,33.40
2022-12-18T19:02:46.385Z,33.08
2022-12-18T19:05:56.188Z,35.53
2022-12-18T19:08:59.313Z,30.08
2022-12-18T19:12:19.536Z,33.25
2022-12-18T19:15:22.521Z,36.08
2022-12-18T19:18:24.974Z,33.25
2022-12-18T19:21:27.971Z,32.58
2022-12-18T19:24:33.099Z,39.08
2022-12-18T19:27:38.969Z,38.75
2022-12-18T19:30:42.016Z,33.38
2022-12-18T19:33:48.617Z,36.30
2022-12-18T19:36:56.489Z,37.03
2022-12-18T19:40:09.169Z,35.95
2022-12-18T19:45:44.076Z,32.67
2022-12-18T19:48:47.926Z,31.60
2022-12-18T19:51:51.266Z,31.90
2022-12-18T19:54:54.275Z,33.15
2022-12-18T19:57:57.957Z,35.35
2022-12-18T20:01:00.601Z,32.30
2022-12-18T20:04:06.433Z,30.60
2022-12-18T20:07:09.050Z,28.25
2022-12-18T20:10:13.922Z,27.02
2022-12-18T20:13:17.535Z,28.65
2022-12-18T20:16:19.856Z,31.02
2022-12-18T20:19:23.041Z,29.30
2022-12-18T20:22:27.576Z,26.60
2022-12-18T20:25:30.421Z,30.52
2022-12-18T20:28:32.818Z,29.95
2022-12-18T20:31:34.774Z,34.22
2022-12-18T20:34:37.152Z,33.78
2022-12-18T20:37:43.805Z,31.33
2022-12-18T20:40:50.839Z,30.40
2022-12-18T20:43:52.814Z,32.55
2022-12-18T20:46:59.448Z,32.90
2022-12-18T20:50:02.673Z,35.90
2022-12-18T20:53:05.626Z,35.30
2022-12-18T20:56:12.697Z,35.72
2022-12-18T20:59:15.237Z,30.88
2022-12-18T21:02:18.713Z,31.52
2022-12-18T21:05:21.064Z,34.22
2022-12-18T21:08:23.389Z,36.13
2022-12-18T21:11:47.653Z,33.80
2022-12-18T21:14:49.378Z,33.50
2022-12-18T21:17:51.942Z,35.80
2022-12-18T21:20:53.775Z,37.42
2022-12-18T21:23:55.874Z,38.83
2022-12-18T21:26:57.716Z,40.38
2022-12-18T21:29:59.951Z,37.88
2022-12-18T21:33:01.576Z,33.85
2022-12-18T21:36:07.052Z,37.40
2022-12-18T21:39:08.887Z,36.50
2022-12-18T21:42:32.277Z,37.75
2022-12-18T21:45:34.143Z,36.15
2022-12-18T21:48:39.046Z,34.50
2022-12-18T21:51:41.225Z,35.95
2022-12-18T21:54:42.860Z,35.25
2022-12-18T21:57:44.469Z,34.28
2022-12-18T22:00:48.788Z,34.70
2022-12-18T22:03:50.614Z,34.33
2022-12-18T22:06:53.046Z,33.60
2022-12-18T22:09:54.758Z,35.17
2022-12-18T22:12:56.388Z,33.20
2022-12-18T22:15:58.047Z,42.60
2022-12-18T22:19:00.140Z,40.10
2022-12-18T22:22:02.010Z,43.30
2022-12-18T22:25:03.989Z,41.80
2022-12-18T22:28:24.189Z,35.50
2022-12-18T22:31:25.879Z,35.67
2022-12-18T22:34:27.566Z,33.05
2022-12-18T22:37:29.214Z,33.55
2022-12-18T22:40:30.895Z,34.95
2022-12-18T22:43:33.428Z,34.17
2022-12-18T22:46:41.808Z,33.58
2022-12-18T22:49:43.587Z,32.72
2022-12-18T22:52:45.260Z,32.65
2022-12-18T22:55:46.966Z,33.80
2022-12-18T22:58:49.664Z,35.05
2022-12-18T23:01:58.358Z,35.53
2022-12-18T23:05:00.847Z,34.65
2022-12-18T23:08:02.453Z,32.47
2022-12-18T23:11:05.453Z,32.47
2022-12-18T23:14:07.144Z,31.65
2022-12-18T23:17:08.773Z,32.22
2022-12-18T23:20:10.954Z,30.75
2022-12-18T23:23:12.644Z,30.62
2022-12-18T23:26:22.614Z,29.80
2022-12-18T23:29:24.253Z,31.33
2022-12-18T23:32:25.880Z,28.45
2022-12-18T23:35:27.468Z,31.80
2022-12-18T23:38:29.843Z,29.75
2022-12-18T23:41:32.799Z,30.52
2022-12-18T23:44:34.820Z,31.70
2022-12-18T23:47:36.491Z,32.30
2022-12-18T23:50:38.434Z,29.10
2022-12-18T23:53:40.939Z,31.33
2022-12-18T23:56:42.539Z,30.88
2022-12-18T23:59:44.144Z,32.35
